createdAt,value
2023-02-21T00:01:40.438Z,13.03
2023-02-21T00:04:25.805Z,5.10
2023-02-21T00:07:10.991Z,4.37
2023-02-21T00:09:57.140Z,5.17
2023-02-21T00:12:42.304Z,6.13
2023-02-21T00:15:27.477Z,5.37
2023-02-21T00:18:12.596Z,6.13
2023-02-21T00:20:57.765Z,4.50
2023-02-21T00:23:42.819Z,4.00
2023-02-21T00:26:28.105Z,4.47
2023-02-21T00:29:13.232Z,4.17
2023-02-21T00:31:58.491Z,4.40
2023-02-21T00:34:43.727Z,4.17
2023-02-21T00:37:28.871Z,4.73
2023-02-21T00:40:15.021Z,5.27
2023-02-21T00:43:00.270Z,4.00
2023-02-21T00:45:45.641Z,6.30
2023-02-21T00:48:30.722Z,4.80
2023-02-21T00:51:16.524Z,4.60
2023-02-21T00:54:01.930Z,4.40
2023-02-21T00:56:47.217Z,4.73
2023-02-21T00:59:32.463Z,5.33
2023-02-21T01:02:17.624Z,4.40
2023-02-21T01:05:02.819Z,4.40
2023-02-21T01:07:48.441Z,7.23
2023-02-21T01:10:33.547Z,4.97
2023-02-21T01:13:18.649Z,5.07
2023-02-21T01:16:03.871Z,4.63
2023-02-21T01:18:49.221Z,6.17
2023-02-21T01:21:34.823Z,4.33
2023-02-21T01:24:19.930Z,4.47
2023-02-21T01:27:05.123Z,5.47
2023-02-21T01:29:50.367Z,5.20
2023-02-21T01:32:35.517Z,5.20
2023-02-21T01:35:20.634Z,5.20
2023-02-21T01:38:05.856Z,4.90
2023-02-21T01:40:50.960Z,7.07
2023-02-21T01:43:37.206Z,5.27
2023-02-21T01:46:23.230Z,6.20
2023-02-21T01:49:09.479Z,5.30
2023-02-21T01:51:56.199Z,6.87
2023-02-21T01:54:42.010Z,6.03
2023-02-21T01:57:27.371Z,6.27
2023-02-21T02:00:14.833Z,5.60
2023-02-21T02:03:17.730Z,5.53
2023-02-21T02:06:07.872Z,5.97
2023-02-21T02:08:53.125Z,5.60
2023-02-21T02:11:43.966Z,5.97
2023-02-21T02:14:16.525Z,5.40
2023-02-21T02:16:48.641Z,5.17
2023-02-21T02:19:35.778Z,5.63
2023-02-21T02:22:31.603Z,5.30
2023-02-21T02:25:15.178Z,5.67
2023-02-21T02:27:49.203Z,5.23
2023-02-21T02:30:24.969Z,5.40
2023-02-21T02:32:51.823Z,6.33
2023-02-21T02:35:31.152Z,5.33
2023-02-21T02:38:04.172Z,5.13
2023-02-21T02:40:33.923Z,5.87
2023-02-21T02:43:00.778Z,6.00
2023-02-21T02:45:43.134Z,6.40
2023-02-21T02:48:22.071Z,7.37
2023-02-21T02:50:49.330Z,6.60
2023-02-21T02:53:16.888Z,6.10
2023-02-21T02:55:49.926Z,6.30
2023-02-21T02:58:17.518Z,8.37
2023-02-21T03:00:46.412Z,7.10
2023-02-21T03:03:36.851Z,7.20
2023-02-21T03:06:03.388Z,6.87
2023-02-21T03:08:46.700Z,6.53
2023-02-21T03:11:23.917Z,7.00
2023-02-21T03:13:56.339Z,6.60
2023-02-21T03:16:23.332Z,6.53
2023-02-21T03:19:10.346Z,6.80
2023-02-21T03:21:39.006Z,6.33
2023-02-21T03:24:08.631Z,7.17
2023-02-21T03:26:37.134Z,6.63
2023-02-21T03:29:22.185Z,6.47
2023-02-21T03:32:12.055Z,6.83
2023-02-21T03:34:42.938Z,6.67
2023-02-21T03:37:20.185Z,7.30
2023-02-21T03:39:46.760Z,7.03
2023-02-21T03:42:13.530Z,7.53
2023-02-21T03:44:40.827Z,7.80
2023-02-21T03:47:07.925Z,7.43
2023-02-21T03:49:34.718Z,8.20
2023-02-21T03:52:01.390Z,6.80
2023-02-21T03:54:27.975Z,8.70
2023-02-21T03:56:57.141Z,9.17
2023-02-21T03:59:25.253Z,7.97
2023-02-21T04:01:52.991Z,7.57
2023-02-21T04:04:20.428Z,7.70
2023-02-21T04:06:52.745Z,8.53
2023-02-21T04:09:19.418Z,8.30
2023-02-21T04:11:46.842Z,8.17
2023-02-21T04:14:13.955Z,7.83
2023-02-21T04:16:42.029Z,7.43
2023-02-21T04:19:09.045Z,7.53
2023-02-21T04:21:35.643Z,7.60
2023-02-21T04:24:02.502Z,7.40
2023-02-21T04:26:31.564Z,8.57
2023-02-21T04:28:58.477Z,9.37
2023-02-21T04:31:25.269Z,8.53
2023-02-21T04:34:02.516Z,8.40
2023-02-21T04:36:38.357Z,9.23
2023-02-21T04:39:06.137Z,9.70
2023-02-21T04:41:32.696Z,8.17
2023-02-21T04:43:59.298Z,8.87
2023-02-21T04:46:25.837Z,10.07
2023-02-21T04:48:52.794Z,10.70
2023-02-21T04:51:21.255Z,9.57
2023-02-21T04:53:48.895Z,8.67
2023-02-21T04:56:15.709Z,9.00
2023-02-21T04:58:45.566Z,8.70
2023-02-21T05:01:13.086Z,8.67
2023-02-21T05:03:39.745Z,8.50
2023-02-21T05:06:06.420Z,8.93
2023-02-21T05:08:32.918Z,8.17
2023-02-21T05:10:59.532Z,8.00
2023-02-21T05:13:26.004Z,7.27
2023-02-21T05:15:52.497Z,7.90
2023-02-21T05:18:22.697Z,8.77
2023-02-21T05:20:50.185Z,8.03
2023-02-21T05:23:19.032Z,8.03
2023-02-21T05:25:45.757Z,7.80
2023-02-21T05:28:12.252Z,8.23
2023-02-21T05:30:38.810Z,7.60
2023-02-21T05:33:05.408Z,8.13
2023-02-21T05:35:31.888Z,9.00
2023-02-21T05:37:58.418Z,7.47
2023-02-21T05:40:24.949Z,7.83
2023-02-21T05:42:51.553Z,7.60
2023-02-21T05:45:18.508Z,7.23
2023-02-21T05:47:45.010Z,6.70
2023-02-21T05:50:11.536Z,7.60
2023-02-21T05:52:38.050Z,7.70
2023-02-21T05:55:04.782Z,7.97
2023-02-21T05:57:31.331Z,7.90
2023-02-21T05:59:57.837Z,7.47
2023-02-21T06:02:24.424Z,7.60
2023-02-21T06:04:51.084Z,7.20
2023-02-21T06:07:18.826Z,8.27
2023-02-21T06:09:45.351Z,7.30
2023-02-21T06:12:11.855Z,9.10
2023-02-21T06:14:38.400Z,8.67
2023-02-21T06:17:04.897Z,9.23
2023-02-21T06:19:33.297Z,8.30
2023-02-21T06:22:00.125Z,9.90
2023-02-21T06:24:26.675Z,8.63
2023-02-21T06:26:53.199Z,8.03
2023-02-21T06:29:19.714Z,8.83
2023-02-21T06:31:46.320Z,8.47
2023-02-21T06:34:13.169Z,8.63
2023-02-21T06:36:39.726Z,8.57
2023-02-21T06:39:08.047Z,8.30
2023-02-21T06:41:34.628Z,8.23
2023-02-21T06:44:01.159Z,9.50
2023-02-21T06:46:29.356Z,9.67
2023-02-21T06:48:56.224Z,9.47
2023-02-21T06:51:29.262Z,10.20
2023-02-21T06:53:56.732Z,9.10
2023-02-21T06:56:23.632Z,10.20
2023-02-21T06:58:50.217Z,9.73
2023-02-21T07:01:17.036Z,10.27
2023-02-21T07:03:44.422Z,12.00
2023-02-21T07:06:11.037Z,10.40
2023-02-21T07:08:37.593Z,10.63
2023-02-21T07:11:05.723Z,11.23
2023-02-21T07:13:32.677Z,12.30
2023-02-21T07:15:59.456Z,11.43
2023-02-21T07:18:25.999Z,10.20
2023-02-21T07:20:52.514Z,11.13
2023-02-21T07:23:19.107Z,10.97
2023-02-21T07:25:45.651Z,9.53
2023-02-21T07:28:12.236Z,9.97
2023-02-21T07:30:38.812Z,11.77
2023-02-21T07:33:05.401Z,10.23
2023-02-21T07:35:31.897Z,9.23
2023-02-21T07:37:58.514Z,10.47
2023-02-21T07:40:25.065Z,9.37
2023-02-21T07:42:51.570Z,10.70
2023-02-21T07:45:18.180Z,9.40
2023-02-21T07:47:48.195Z,9.67
2023-02-21T07:50:15.716Z,9.23
2023-02-21T07:52:42.241Z,8.70
2023-02-21T07:55:08.974Z,10.87
2023-02-21T07:57:35.575Z,10.50
2023-02-21T08:00:02.153Z,8.77
2023-02-21T08:02:39.487Z,9.47
2023-02-21T08:05:07.162Z,8.00
2023-02-21T08:07:33.736Z,8.57
2023-02-21T08:10:00.236Z,10.30
2023-02-21T08:12:26.792Z,8.23
2023-02-21T08:14:53.343Z,8.63
2023-02-21T08:17:19.853Z,8.23
2023-02-21T08:19:46.332Z,7.67
2023-02-21T08:22:12.867Z,7.70
2023-02-21T08:24:39.369Z,7.93
2023-02-21T08:27:06.023Z,7.83
2023-02-21T08:29:32.620Z,8.93
2023-02-21T08:31:59.164Z,10.07
2023-02-21T08:34:25.732Z,8.17
2023-02-21T08:36:52.303Z,9.60
2023-02-21T08:39:18.830Z,8.50
2023-02-21T08:41:48.455Z,9.40
2023-02-21T08:44:21.645Z,10.93
2023-02-21T08:46:49.825Z,9.37
2023-02-21T08:49:16.835Z,10.27
2023-02-21T08:51:43.343Z,10.57
2023-02-21T08:54:09.902Z,9.63
2023-02-21T08:56:36.570Z,8.77
2023-02-21T08:59:04.551Z,9.33
2023-02-21T09:01:35.504Z,9.57
2023-02-21T09:04:02.765Z,8.97
2023-02-21T09:06:29.372Z,9.17
2023-02-21T09:08:56.113Z,9.50
2023-02-21T09:11:22.713Z,9.37
2023-02-21T09:13:49.635Z,9.10
2023-02-21T09:16:16.184Z,9.50
2023-02-21T09:18:42.690Z,9.90
2023-02-21T09:21:09.348Z,9.30
2023-02-21T09:23:35.890Z,12.80
2023-02-21T09:26:02.424Z,9.03
2023-02-21T09:28:31.310Z,10.33
2023-02-21T09:30:57.826Z,9.17
2023-02-21T09:33:25.337Z,9.77
2023-02-21T09:35:52.034Z,9.50
2023-02-21T09:38:18.602Z,10.43
2023-02-21T09:40:45.318Z,11.40
2023-02-21T09:43:15.977Z,11.00
2023-02-21T09:45:44.201Z,11.17
2023-02-21T09:48:18.749Z,11.27
2023-02-21T09:50:56.624Z,12.03
2023-02-21T09:53:26.072Z,11.17
2023-02-21T09:55:54.921Z,12.70
2023-02-21T09:58:21.664Z,13.77
2023-02-21T10:00:48.502Z,15.27
2023-02-21T10:03:36.178Z,11.63
2023-02-21T10:06:04.408Z,11.60
2023-02-21T10:08:37.286Z,11.63
2023-02-21T10:11:27.947Z,11.20
2023-02-21T10:14:00.102Z,12.87
2023-02-21T10:16:34.013Z,11.03
2023-02-21T10:19:09.701Z,11.47
2023-02-21T10:21:41.488Z,11.20
2023-02-21T10:24:13.247Z,13.20
2023-02-21T10:26:42.421Z,12.83
2023-02-21T10:29:21.421Z,12.47
2023-02-21T10:31:48.648Z,11.73
2023-02-21T10:34:26.507Z,11.37
2023-02-21T10:36:54.978Z,13.47
2023-02-21T10:39:24.949Z,14.47
2023-02-21T10:41:52.043Z,10.27
2023-02-21T10:44:22.254Z,10.77
2023-02-21T10:47:03.096Z,12.60
2023-02-21T10:49:35.178Z,9.73
2023-02-21T10:52:04.508Z,10.17
2023-02-21T10:54:32.861Z,11.50
2023-02-21T10:57:02.299Z,10.30
2023-02-21T10:59:33.295Z,9.83
2023-02-21T11:02:01.570Z,10.13
2023-02-21T11:04:34.684Z,11.67
2023-02-21T11:07:19.864Z,10.50
2023-02-21T11:09:47.457Z,11.13
2023-02-21T11:12:20.305Z,9.10
2023-02-21T11:14:46.815Z,11.50
2023-02-21T11:17:18.077Z,11.27
2023-02-21T11:20:08.052Z,10.23
2023-02-21T11:22:35.038Z,9.87
2023-02-21T11:25:05.401Z,9.53
2023-02-21T11:27:34.851Z,9.80
2023-02-21T11:30:02.749Z,10.53
2023-02-21T11:32:33.900Z,9.67
2023-02-21T11:35:02.001Z,11.67
2023-02-21T11:37:29.477Z,9.97
2023-02-21T11:39:55.988Z,10.27
2023-02-21T11:42:25.321Z,9.33
2023-02-21T11:45:05.000Z,10.37
2023-02-21T11:47:46.471Z,9.77
2023-02-21T11:50:18.455Z,9.73
2023-02-21T11:52:44.959Z,9.53
2023-02-21T11:55:19.580Z,10.27
2023-02-21T11:57:46.252Z,10.40
2023-02-21T12:00:15.821Z,11.47
2023-02-21T12:02:42.276Z,9.57
2023-02-21T12:05:11.641Z,9.00
2023-02-21T12:07:57.709Z,9.30
2023-02-21T12:10:24.269Z,9.70
2023-02-21T12:13:02.444Z,9.00
2023-02-21T12:15:38.102Z,8.73
2023-02-21T12:18:23.804Z,10.20
2023-02-21T12:20:53.098Z,8.57
2023-02-21T12:23:32.265Z,8.13
2023-02-21T12:26:05.398Z,7.97
2023-02-21T12:28:40.776Z,8.73
2023-02-21T12:31:07.333Z,8.13
2023-02-21T12:33:43.536Z,7.73
2023-02-21T12:36:28.830Z,7.37
2023-02-21T12:39:02.956Z,7.00
2023-02-21T12:41:44.091Z,7.73
2023-02-21T12:44:15.375Z,7.73
2023-02-21T12:46:51.296Z,6.80
2023-02-21T12:49:17.888Z,6.60
2023-02-21T12:51:51.316Z,7.70
2023-02-21T12:54:38.075Z,8.27
2023-02-21T12:57:11.485Z,7.77
2023-02-21T12:59:37.980Z,4.57
2023-02-21T13:02:12.479Z,9.20
2023-02-21T13:04:47.229Z,6.73
2023-02-21T13:07:25.432Z,6.13
2023-02-21T13:09:57.733Z,5.10
2023-02-21T13:12:32.122Z,4.43
2023-02-21T13:15:00.755Z,3.93
2023-02-21T13:17:27.552Z,5.57
2023-02-21T13:19:54.071Z,6.80
2023-02-21T13:22:43.328Z,4.40
2023-02-21T13:25:12.906Z,3.30
2023-02-21T13:28:02.144Z,3.57
2023-02-21T13:30:37.910Z,2.43
2023-02-21T13:33:04.687Z,2.97
2023-02-21T13:35:33.867Z,2.63
2023-02-21T13:38:01.662Z,2.33
2023-02-21T13:40:47.722Z,2.77
2023-02-21T13:43:18.600Z,1.77
2023-02-21T13:45:45.693Z,4.30
2023-02-21T13:48:28.660Z,2.87
2023-02-21T13:50:59.168Z,2.20
2023-02-21T13:53:33.977Z,2.10
2023-02-21T13:56:00.524Z,2.07
2023-02-21T13:58:49.380Z,1.20
2023-02-21T14:01:25.151Z,3.20
2023-02-21T14:03:53.726Z,1.70
2023-02-21T14:06:34.595Z,1.70
2023-02-21T14:09:10.821Z,2.30
2023-02-21T14:11:39.417Z,2.10
2023-02-21T14:14:20.115Z,1.67
2023-02-21T14:16:49.438Z,1.30
2023-02-21T14:19:26.626Z,1.13
2023-02-21T14:22:03.338Z,1.67
2023-02-21T14:24:35.993Z,0.77
2023-02-21T14:27:02.615Z,0.83
2023-02-21T14:29:39.475Z,0.83
2023-02-21T14:32:08.876Z,1.63
2023-02-21T14:34:47.377Z,0.90
2023-02-21T14:37:25.874Z,1.00
2023-02-21T14:39:53.761Z,1.40
2023-02-21T14:42:23.381Z,1.57
2023-02-21T14:44:55.977Z,0.93
2023-02-21T14:47:40.562Z,0.60
2023-02-21T14:50:24.053Z,0.80
2023-02-21T14:52:56.622Z,0.60
2023-02-21T14:55:24.367Z,0.77
2023-02-21T14:57:50.970Z,1.80
2023-02-21T15:00:29.525Z,1.10
2023-02-21T15:03:10.008Z,1.13
2023-02-21T15:05:53.186Z,0.53
2023-02-21T15:08:21.606Z,0.60
2023-02-21T15:10:49.187Z,0.97
2023-02-21T15:13:24.608Z,1.23
2023-02-21T15:15:59.998Z,0.70
2023-02-21T15:18:29.319Z,0.63
2023-02-21T15:21:06.796Z,1.03
2023-02-21T15:23:34.514Z,0.77
2023-02-21T15:26:10.562Z,0.70
2023-02-21T15:28:37.088Z,5.07
2023-02-21T15:31:08.837Z,2.03
2023-02-21T15:33:36.371Z,0.80
2023-02-21T15:36:08.931Z,0.80
2023-02-21T15:38:39.106Z,1.53
2023-02-21T15:41:08.127Z,0.90
2023-02-21T15:43:41.154Z,2.80
2023-02-21T15:46:08.707Z,1.83
2023-02-21T15:48:35.752Z,2.50
2023-02-21T15:51:04.004Z,1.40
2023-02-21T15:53:30.710Z,0.70
2023-02-21T15:56:15.259Z,1.87
2023-02-21T15:58:41.908Z,0.53
2023-02-21T16:01:10.823Z,0.40
2023-02-21T16:03:41.650Z,2.10
2023-02-21T16:06:08.134Z,0.40
2023-02-21T16:08:34.684Z,1.40
2023-02-21T16:11:02.291Z,0.60
2023-02-21T16:13:37.935Z,0.60
2023-02-21T16:16:04.968Z,2.43
2023-02-21T16:18:31.920Z,0.63
2023-02-21T16:20:59.643Z,0.60
2023-02-21T16:23:30.811Z,0.93
2023-02-21T16:26:03.225Z,0.70
2023-02-21T16:28:30.607Z,0.50
2023-02-21T16:31:01.573Z,1.50
2023-02-21T16:33:28.636Z,0.60
2023-02-21T16:35:55.985Z,0.70
2023-02-21T16:38:23.776Z,0.80
2023-02-21T16:40:50.357Z,0.40
2023-02-21T16:43:21.825Z,1.20
2023-02-21T16:45:49.093Z,0.50
2023-02-21T16:48:22.252Z,0.50
2023-02-21T16:50:49.778Z,0.93
2023-02-21T16:53:17.207Z,0.57
2023-02-21T16:55:45.105Z,1.17
2023-02-21T16:58:26.499Z,2.30
2023-02-21T17:00:54.021Z,0.90
2023-02-21T17:03:20.847Z,1.27
2023-02-21T17:05:47.706Z,1.63
2023-02-21T17:08:14.356Z,4.77
2023-02-21T17:10:40.884Z,5.10
2023-02-21T17:13:07.410Z,4.97
2023-02-21T17:15:33.903Z,4.20
2023-02-21T17:18:00.999Z,3.30
2023-02-21T17:20:27.555Z,2.90
2023-02-21T17:22:54.829Z,0.70
2023-02-21T17:25:22.194Z,0.60
2023-02-21T17:27:48.943Z,0.40
2023-02-21T17:30:16.299Z,0.53
2023-02-21T17:32:43.744Z,0.70
2023-02-21T17:35:10.424Z,0.50
2023-02-21T17:37:36.966Z,1.67
2023-02-21T17:40:03.734Z,0.50
2023-02-21T17:42:30.229Z,0.60
2023-02-21T17:44:57.607Z,0.50
2023-02-21T17:47:24.270Z,0.90
2023-02-21T17:49:51.577Z,1.60
2023-02-21T17:52:18.413Z,0.60
2023-02-21T17:54:44.933Z,0.93
2023-02-21T17:57:11.752Z,0.70
2023-02-21T17:59:38.412Z,0.80
2023-02-21T18:02:05.666Z,1.10
2023-02-21T18:04:32.416Z,0.87
2023-02-21T18:06:58.973Z,0.87
2023-02-21T18:09:25.771Z,0.87
2023-02-21T18:11:53.956Z,1.17
2023-02-21T18:14:21.511Z,0.97
2023-02-21T18:16:48.226Z,0.90
2023-02-21T18:19:15.428Z,1.40
2023-02-21T18:21:42.656Z,0.90
2023-02-21T18:24:09.527Z,2.43
2023-02-21T18:26:36.647Z,0.77
2023-02-21T18:29:04.052Z,1.17
2023-02-21T18:31:30.563Z,1.20
2023-02-21T18:33:57.118Z,1.17
2023-02-21T18:36:23.593Z,1.57
2023-02-21T18:38:50.161Z,1.30
2023-02-21T18:41:20.267Z,1.00
2023-02-21T18:43:46.916Z,1.40
2023-02-21T18:46:15.121Z,1.07
2023-02-21T18:48:42.711Z,2.20
2023-02-21T18:51:10.548Z,4.60
2023-02-21T18:53:37.470Z,2.70
2023-02-21T18:56:07.582Z,2.57
2023-02-21T18:58:34.876Z,2.00
2023-02-21T19:01:01.394Z,2.47
2023-02-21T19:03:28.252Z,9.83
2023-02-21T19:05:54.925Z,21.73
2023-02-21T19:08:21.614Z,21.50
2023-02-21T19:10:49.301Z,24.87
2023-02-21T19:13:16.357Z,9.67
2023-02-21T19:15:42.912Z,4.93
2023-02-21T19:18:09.520Z,4.23
2023-02-21T19:20:37.027Z,8.37
2023-02-21T19:23:03.586Z,11.33
2023-02-21T19:25:31.042Z,15.13
2023-02-21T19:28:00.695Z,11.43
2023-02-21T19:30:34.173Z,14.00
2023-02-21T19:33:01.417Z,21.00
2023-02-21T19:35:28.791Z,12.70
2023-02-21T19:37:55.902Z,12.47
2023-02-21T19:40:23.140Z,12.37
2023-02-21T19:42:50.175Z,8.50
2023-02-21T19:45:17.340Z,9.33
2023-02-21T19:47:44.717Z,11.00
2023-02-21T19:50:11.571Z,10.00
2023-02-21T19:52:38.277Z,7.30
2023-02-21T19:55:05.459Z,5.67
2023-02-21T19:57:31.950Z,3.20
2023-02-21T19:59:58.691Z,2.63
2023-02-21T20:02:25.455Z,5.83
2023-02-21T20:04:52.045Z,3.20
2023-02-21T20:07:18.789Z,3.27
2023-02-21T20:09:47.165Z,2.90
2023-02-21T20:12:14.733Z,2.90
2023-02-21T20:14:45.950Z,3.67
2023-02-21T20:17:12.628Z,4.33
2023-02-21T20:19:39.162Z,4.10
2023-02-21T20:22:05.696Z,3.80
2023-02-21T20:24:32.218Z,4.33
2023-02-21T20:26:58.838Z,3.93
2023-02-21T20:29:26.754Z,3.77
2023-02-21T20:31:55.027Z,3.40
2023-02-21T20:34:24.322Z,5.00
2023-02-21T20:36:50.828Z,3.47
2023-02-21T20:39:22.262Z,2.90
2023-02-21T20:41:48.904Z,2.40
2023-02-21T20:44:15.653Z,2.70
2023-02-21T20:46:42.260Z,2.90
2023-02-21T20:49:08.783Z,2.90
2023-02-21T20:51:36.856Z,2.60
2023-02-21T20:54:04.851Z,3.50
2023-02-21T20:56:32.538Z,2.90
2023-02-21T20:58:59.052Z,3.13
2023-02-21T21:01:25.774Z,3.23
2023-02-21T21:03:52.640Z,2.67
2023-02-21T21:06:19.162Z,3.30
2023-02-21T21:08:45.782Z,3.53
2023-02-21T21:11:12.306Z,3.13
2023-02-21T21:13:39.671Z,4.00
2023-02-21T21:16:07.754Z,5.10
2023-02-21T21:18:34.673Z,5.87
2023-02-21T21:21:01.243Z,4.40
2023-02-21T21:23:27.754Z,9.00
2023-02-21T21:25:54.274Z,5.33
2023-02-21T21:28:20.833Z,4.50
2023-02-21T21:30:47.709Z,6.37
2023-02-21T21:33:18.872Z,6.00
2023-02-21T21:35:45.399Z,4.10
2023-02-21T21:38:11.889Z,3.87
2023-02-21T21:40:38.511Z,3.57
2023-02-21T21:43:07.638Z,6.37
2023-02-21T21:45:44.121Z,3.47
2023-02-21T21:48:10.854Z,3.10
2023-02-21T21:50:37.379Z,3.30
2023-02-21T21:53:03.941Z,4.00
2023-02-21T21:55:30.750Z,4.03
2023-02-21T21:57:58.800Z,5.60
2023-02-21T22:00:26.588Z,5.37
2023-02-21T22:02:57.514Z,6.87
2023-02-21T22:05:28.441Z,7.60
2023-02-21T22:07:55.918Z,13.40
2023-02-21T22:10:23.989Z,10.93
2023-02-21T22:12:51.256Z,12.87
2023-02-21T22:15:21.957Z,11.33
2023-02-21T22:17:48.639Z,4.70
2023-02-21T22:20:20.086Z,11.93
2023-02-21T22:22:48.945Z,13.33
2023-02-21T22:25:16.334Z,12.73
2023-02-21T22:27:42.994Z,17.17
2023-02-21T22:30:09.934Z,14.13
2023-02-21T22:32:36.812Z,8.00
2023-02-21T22:35:03.990Z,13.93
2023-02-21T22:37:30.596Z,10.13
2023-02-21T22:39:57.065Z,14.53
2023-02-21T22:42:23.566Z,11.87
2023-02-21T22:44:50.613Z,8.50
2023-02-21T22:47:19.051Z,10.20
2023-02-21T22:49:46.407Z,14.90
2023-02-21T22:52:13.120Z,11.17
2023-02-21T22:54:39.640Z,9.43
2023-02-21T22:57:07.267Z,4.20
2023-02-21T22:59:35.517Z,11.13
2023-02-21T23:02:03.166Z,14.90
2023-02-21T23:04:36.626Z,10.00
2023-02-21T23:07:04.568Z,15.60
2023-02-21T23:09:32.940Z,13.50
2023-02-21T23:12:00.232Z,9.27
2023-02-21T23:14:27.585Z,10.73
2023-02-21T23:16:57.642Z,10.23
2023-02-21T23:19:25.426Z,15.10
2023-02-21T23:21:52.705Z,11.30
2023-02-21T23:24:20.141Z,8.55
2023-02-21T23:26:47.387Z,7.60
2023-02-21T23:29:15.052Z,5.83
2023-02-21T23:31:41.649Z,5.07
2023-02-21T23:34:08.660Z,8.53
2023-02-21T23:36:35.276Z,9.60
2023-02-21T23:39:08.993Z,12.60
2023-02-21T23:41:38.826Z,8.27
2023-02-21T23:44:06.841Z,8.93
2023-02-21T23:46:33.436Z,8.47
2023-02-21T23:49:00.002Z,8.73
2023-02-21T23:51:26.566Z,5.80
2023-02-21T23:53:53.146Z,10.80
2023-02-21T23:56:21.334Z,6.53
2023-02-21T23:58:49.975Z,10.50
